<?xml version="1.0" encoding="UTF-8" standalone="no" ?>
<gpx xmlns="http://www.topografix.com/GPX/1/1" xmlns:xsi="http://www.w3.org/2001/XMLSchema-instance" xsi:schemaLocation="http://www.topografix.com/GPX/1/1 http://www.topografix.com/GPX/1/1/gpx.xsd" version="1.1" creator="VisuGPX - https://www.visugpx.com">
  <metadata>
    <name>Davrinche20104</name>
    <desc><![CDATA[la partie 4 des itinéraires de repérage]]></desc>
  </metadata>
  <trk>
    <name><![CDATA[--Volvic-- OR-5366948:ser-jb01-b]]></name>
    <trkseg>
      <trkpt lat="45.87124" lon="3.02787">
        <ele>578</ele>
        <time>2015-10-17T12:38:13Z</time>
      </trkpt>
      <trkpt lat="45.8711" lon="3.02783">
        <ele>578</ele>
        <time>2015-10-17T12:40:13Z</time>
      </trkpt>
      <trkpt lat="45.87104" lon="3.0282">
        <ele>575</ele>
        <time>2015-10-17T12:42:13Z</time>
      </trkpt>
      <trkpt lat="45.87097" lon="3.02847">
        <ele>573</ele>
        <time>2015-10-17T12:44:13Z</time>
      </trkpt>
      <trkpt lat="45.87092" lon="3.02865">
        <ele>572</ele>
        <time>2015-10-17T12:46:13Z</time>
      </trkpt>
      <trkpt lat="45.87087" lon="3.02883">
        <ele>571</ele>
        <time>2015-10-17T12:48:13Z</time>
      </trkpt>
      <trkpt lat="45.87078" lon="3.02919">
        <ele>570</ele>
        <time>2015-10-17T12:50:13Z</time>
      </trkpt>
      <trkpt lat="45.87068" lon="3.02951">
        <ele>569</ele>
        <time>2015-10-17T12:52:13Z</time>
      </trkpt>
      <trkpt lat="45.87061" lon="3.02978">
        <ele>567</ele>
        <time>2015-10-17T12:54:13Z</time>
      </trkpt>
      <trkpt lat="45.87043" lon="3.0303">
        <ele>565</ele>
        <time>2015-10-17T12:56:13Z</time>
      </trkpt>
      <trkpt lat="45.87032" lon="3.03058">
        <ele>564</ele>
        <time>2015-10-17T12:58:13Z</time>
      </trkpt>
      <trkpt lat="45.87027" lon="3.03076">
        <ele>563</ele>
        <time>2015-10-17T13:00:13Z</time>
      </trkpt>
      <trkpt lat="45.87036" lon="3.03103">
        <ele>562</ele>
        <time>2015-10-17T13:02:13Z</time>
      </trkpt>
      <trkpt lat="45.87052" lon="3.03111">
        <ele>562</ele>
        <time>2015-10-17T13:04:13Z</time>
      </trkpt>
      <trkpt lat="45.87068" lon="3.03116">
        <ele>563</ele>
        <time>2015-10-17T13:06:13Z</time>
      </trkpt>
      <trkpt lat="45.87105" lon="3.03123">
        <ele>563</ele>
        <time>2015-10-17T13:08:13Z</time>
      </trkpt>
      <trkpt lat="45.87126" lon="3.03125">
        <ele>562</ele>
        <time>2015-10-17T13:10:13Z</time>
      </trkpt>
      <trkpt lat="45.87141" lon="3.03129">
        <ele>562</ele>
        <time>2015-10-17T13:12:13Z</time>
      </trkpt>
      <trkpt lat="45.87152" lon="3.03137">
        <ele>561</ele>
        <time>2015-10-17T13:14:13Z</time>
      </trkpt>
      <trkpt lat="45.87172" lon="3.03156">
        <ele>560</ele>
        <time>2015-10-17T13:16:13Z</time>
      </trkpt>
      <trkpt lat="45.87183" lon="3.03171">
        <ele>560</ele>
        <time>2015-10-17T13:18:13Z</time>
      </trkpt>
      <trkpt lat="45.872" lon="3.0321">
        <ele>561</ele>
        <time>2015-10-17T13:20:13Z</time>
      </trkpt>
      <trkpt lat="45.87205" lon="3.03271">
        <ele>560</ele>
        <time>2015-10-17T13:22:13Z</time>
      </trkpt>
      <trkpt lat="45.87201" lon="3.03295">
        <ele>559</ele>
        <time>2015-10-17T13:24:13Z</time>
      </trkpt>
      <trkpt lat="45.87186" lon="3.03334">
        <ele>557</ele>
        <time>2015-10-17T13:26:13Z</time>
      </trkpt>
      <trkpt lat="45.87187" lon="3.03366">
        <ele>556</ele>
        <time>2015-10-17T13:28:13Z</time>
      </trkpt>
      <trkpt lat="45.87203" lon="3.03386">
        <ele>557</ele>
        <time>2015-10-17T13:30:13Z</time>
      </trkpt>
      <trkpt lat="45.87215" lon="3.03388">
        <ele>559</ele>
        <time>2015-10-17T13:32:13Z</time>
      </trkpt>
      <trkpt lat="45.8723" lon="3.03384">
        <ele>561</ele>
        <time>2015-10-17T13:34:13Z</time>
      </trkpt>
      <trkpt lat="45.87246" lon="3.03374">
        <ele>564</ele>
        <time>2015-10-17T13:36:13Z</time>
      </trkpt>
      <trkpt lat="45.87256" lon="3.03366">
        <ele>566</ele>
        <time>2015-10-17T13:38:13Z</time>
      </trkpt>
      <trkpt lat="45.87269" lon="3.03359">
        <ele>568</ele>
        <time>2015-10-17T13:40:13Z</time>
      </trkpt>
      <trkpt lat="45.87288" lon="3.03344">
        <ele>572</ele>
        <time>2015-10-17T13:42:13Z</time>
      </trkpt>
      <trkpt lat="45.87295" lon="3.03341">
        <ele>573</ele>
        <time>2015-10-17T13:44:13Z</time>
      </trkpt>
      <trkpt lat="45.87292" lon="3.03354">
        <ele>573</ele>
        <time>2015-10-17T13:46:13Z</time>
      </trkpt>
      <trkpt lat="45.87282" lon="3.03365">
        <ele>571</ele>
        <time>2015-10-17T13:48:13Z</time>
      </trkpt>
      <trkpt lat="45.87272" lon="3.03384">
        <ele>569</ele>
        <time>2015-10-17T13:50:13Z</time>
      </trkpt>
      <trkpt lat="45.87276" lon="3.03392">
        <ele>570</ele>
        <time>2015-10-17T13:52:13Z</time>
      </trkpt>
      <trkpt lat="45.87291" lon="3.03396">
        <ele>573</ele>
        <time>2015-10-17T13:54:13Z</time>
      </trkpt>
      <trkpt lat="45.87304" lon="3.03401">
        <ele>575</ele>
        <time>2015-10-17T13:56:13Z</time>
      </trkpt>
      <trkpt lat="45.8731" lon="3.03412">
        <ele>577</ele>
        <time>2015-10-17T13:58:13Z</time>
      </trkpt>
      <trkpt lat="45.87316" lon="3.03422">
        <ele>578</ele>
        <time>2015-10-17T14:00:13Z</time>
      </trkpt>
      <trkpt lat="45.87323" lon="3.03429">
        <ele>578</ele>
        <time>2015-10-17T14:02:13Z</time>
      </trkpt>
      <trkpt lat="45.87333" lon="3.03427">
        <ele>581</ele>
        <time>2015-10-17T14:04:13Z</time>
      </trkpt>
      <trkpt lat="45.87345" lon="3.03427">
        <ele>585</ele>
        <time>2015-10-17T14:06:13Z</time>
      </trkpt>
      <trkpt lat="45.87355" lon="3.03432">
        <ele>587</ele>
        <time>2015-10-17T14:08:13Z</time>
      </trkpt>
      <trkpt lat="45.87371" lon="3.03444">
        <ele>591</ele>
        <time>2015-10-17T14:10:13Z</time>
      </trkpt>
      <trkpt lat="45.87385" lon="3.03454">
        <ele>594</ele>
        <time>2015-10-17T14:12:13Z</time>
      </trkpt>
      <trkpt lat="45.87404" lon="3.03463">
        <ele>599</ele>
        <time>2015-10-17T14:14:13Z</time>
      </trkpt>
      <trkpt lat="45.87436" lon="3.03475">
        <ele>606</ele>
        <time>2015-10-17T14:16:13Z</time>
      </trkpt>
      <trkpt lat="45.87471" lon="3.03493">
        <ele>612</ele>
        <time>2015-10-17T14:18:13Z</time>
      </trkpt>
      <trkpt lat="45.875" lon="3.03512">
        <ele>616</ele>
        <time>2015-10-17T14:20:13Z</time>
      </trkpt>
      <trkpt lat="45.87522" lon="3.03528">
        <ele>621</ele>
        <time>2015-10-17T14:22:13Z</time>
      </trkpt>
      <trkpt lat="45.8753" lon="3.0354">
        <ele>621</ele>
        <time>2015-10-17T14:24:13Z</time>
      </trkpt>
      <trkpt lat="45.87547" lon="3.03576">
        <ele>623</ele>
        <time>2015-10-17T14:26:13Z</time>
      </trkpt>
      <trkpt lat="45.87566" lon="3.03613">
        <ele>624</ele>
        <time>2015-10-17T14:28:13Z</time>
      </trkpt>
      <trkpt lat="45.87586" lon="3.03643">
        <ele>627</ele>
        <time>2015-10-17T14:30:13Z</time>
      </trkpt>
      <trkpt lat="45.87605" lon="3.03662">
        <ele>628</ele>
        <time>2015-10-17T14:32:13Z</time>
      </trkpt>
      <trkpt lat="45.87619" lon="3.0368">
        <ele>626</ele>
        <time>2015-10-17T14:34:13Z</time>
      </trkpt>
      <trkpt lat="45.87645" lon="3.03685">
        <ele>629</ele>
        <time>2015-10-17T14:36:13Z</time>
      </trkpt>
      <trkpt lat="45.87679" lon="3.03692">
        <ele>631</ele>
        <time>2015-10-17T14:38:13Z</time>
      </trkpt>
      <trkpt lat="45.87718" lon="3.037">
        <ele>629</ele>
        <time>2015-10-17T14:40:13Z</time>
      </trkpt>
      <trkpt lat="45.87752" lon="3.03703">
        <ele>629</ele>
        <time>2015-10-17T14:42:13Z</time>
      </trkpt>
      <trkpt lat="45.87771" lon="3.03694">
        <ele>630</ele>
        <time>2015-10-17T14:44:13Z</time>
      </trkpt>
      <trkpt lat="45.87799" lon="3.03684">
        <ele>631</ele>
        <time>2015-10-17T14:46:13Z</time>
      </trkpt>
      <trkpt lat="45.87839" lon="3.03672">
        <ele>630</ele>
        <time>2015-10-17T14:48:13Z</time>
      </trkpt>
      <trkpt lat="45.87868" lon="3.03667">
        <ele>629</ele>
        <time>2015-10-17T14:50:13Z</time>
      </trkpt>
      <trkpt lat="45.87898" lon="3.03664">
        <ele>626</ele>
        <time>2015-10-17T14:52:13Z</time>
      </trkpt>
      <trkpt lat="45.87973" lon="3.0366">
        <ele>621</ele>
        <time>2015-10-17T14:54:13Z</time>
      </trkpt>
      <trkpt lat="45.88007" lon="3.03662">
        <ele>617</ele>
        <time>2015-10-17T14:56:13Z</time>
      </trkpt>
      <trkpt lat="45.88028" lon="3.03664">
        <ele>615</ele>
        <time>2015-10-17T14:58:13Z</time>
      </trkpt>
      <trkpt lat="45.88062" lon="3.03662">
        <ele>615</ele>
        <time>2015-10-17T15:00:13Z</time>
      </trkpt>
      <trkpt lat="45.88087" lon="3.03656">
        <ele>616</ele>
        <time>2015-10-17T15:02:13Z</time>
      </trkpt>
      <trkpt lat="45.88159" lon="3.03641">
        <ele>614</ele>
        <time>2015-10-17T15:04:13Z</time>
      </trkpt>
      <trkpt lat="45.88177" lon="3.03634">
        <ele>616</ele>
        <time>2015-10-17T15:06:13Z</time>
      </trkpt>
      <trkpt lat="45.88195" lon="3.03633">
        <ele>616</ele>
        <time>2015-10-17T15:08:13Z</time>
      </trkpt>
      <trkpt lat="45.88209" lon="3.03633">
        <ele>616</ele>
        <time>2015-10-17T15:10:13Z</time>
      </trkpt>
      <trkpt lat="45.88233" lon="3.03643">
        <ele>612</ele>
        <time>2015-10-17T15:12:13Z</time>
      </trkpt>
      <trkpt lat="45.88265" lon="3.03667">
        <ele>605</ele>
        <time>2015-10-17T15:14:13Z</time>
      </trkpt>
      <trkpt lat="45.88301" lon="3.03691">
        <ele>601</ele>
        <time>2015-10-17T15:16:13Z</time>
      </trkpt>
      <trkpt lat="45.88348" lon="3.03721">
        <ele>596</ele>
        <time>2015-10-17T15:18:13Z</time>
      </trkpt>
      <trkpt lat="45.88392" lon="3.03743">
        <ele>593</ele>
        <time>2015-10-17T15:20:13Z</time>
      </trkpt>
      <trkpt lat="45.88422" lon="3.03759">
        <ele>592</ele>
        <time>2015-10-17T15:22:13Z</time>
      </trkpt>
      <trkpt lat="45.88441" lon="3.03773">
        <ele>590</ele>
        <time>2015-10-17T15:24:13Z</time>
      </trkpt>
      <trkpt lat="45.88459" lon="3.03796">
        <ele>589</ele>
        <time>2015-10-17T15:26:13Z</time>
      </trkpt>
      <trkpt lat="45.88482" lon="3.03766">
        <ele>589</ele>
        <time>2015-10-17T15:28:13Z</time>
      </trkpt>
      <trkpt lat="45.88505" lon="3.03786">
        <ele>588</ele>
        <time>2015-10-17T15:30:13Z</time>
      </trkpt>
      <trkpt lat="45.88545" lon="3.03841">
        <ele>581</ele>
        <time>2015-10-17T15:32:13Z</time>
      </trkpt>
      <trkpt lat="45.88563" lon="3.0387">
        <ele>575</ele>
        <time>2015-10-17T15:34:13Z</time>
      </trkpt>
      <trkpt lat="45.88439" lon="3.0371">
        <ele>589</ele>
        <time>2015-10-17T15:36:13Z</time>
      </trkpt>
      <trkpt lat="45.88389" lon="3.03628">
        <ele>603</ele>
        <time>2015-10-17T15:38:13Z</time>
      </trkpt>
      <trkpt lat="45.88369" lon="3.03589">
        <ele>612</ele>
        <time>2015-10-17T15:40:13Z</time>
      </trkpt>
      <trkpt lat="45.88371" lon="3.03567">
        <ele>615</ele>
        <time>2015-10-17T15:42:13Z</time>
      </trkpt>
      <trkpt lat="45.88402" lon="3.03519">
        <ele>612</ele>
        <time>2015-10-17T15:44:13Z</time>
      </trkpt>
      <trkpt lat="45.88411" lon="3.03501">
        <ele>610</ele>
        <time>2015-10-17T15:46:13Z</time>
      </trkpt>
      <trkpt lat="45.88405" lon="3.03445">
        <ele>615</ele>
        <time>2015-10-17T15:48:13Z</time>
      </trkpt>
      <trkpt lat="45.88386" lon="3.03386">
        <ele>621</ele>
        <time>2015-10-17T15:50:13Z</time>
      </trkpt>
      <trkpt lat="45.88294" lon="3.03229">
        <ele>641</ele>
        <time>2015-10-17T15:52:13Z</time>
      </trkpt>
      <trkpt lat="45.88282" lon="3.03211">
        <ele>644</ele>
        <time>2015-10-17T15:54:13Z</time>
      </trkpt>
      <trkpt lat="45.88249" lon="3.03158">
        <ele>648</ele>
        <time>2015-10-17T15:56:13Z</time>
      </trkpt>
      <trkpt lat="45.88191" lon="3.03068">
        <ele>656</ele>
        <time>2015-10-17T15:58:13Z</time>
      </trkpt>
      <trkpt lat="45.88138" lon="3.02947">
        <ele>668</ele>
        <time>2015-10-17T16:00:13Z</time>
      </trkpt>
      <trkpt lat="45.88119" lon="3.02817">
        <ele>680</ele>
        <time>2015-10-17T16:02:13Z</time>
      </trkpt>
      <trkpt lat="45.88125" lon="3.028">
        <ele>683</ele>
        <time>2015-10-17T16:04:13Z</time>
      </trkpt>
      <trkpt lat="45.88142" lon="3.02784">
        <ele>687</ele>
        <time>2015-10-17T16:06:13Z</time>
      </trkpt>
      <trkpt lat="45.88231" lon="3.02759">
        <ele>700</ele>
        <time>2015-10-17T16:08:13Z</time>
      </trkpt>
      <trkpt lat="45.88268" lon="3.0276">
        <ele>701</ele>
        <time>2015-10-17T16:10:13Z</time>
      </trkpt>
      <trkpt lat="45.88295" lon="3.0275">
        <ele>702</ele>
        <time>2015-10-17T16:12:13Z</time>
      </trkpt>
      <trkpt lat="45.88303" lon="3.02731">
        <ele>704</ele>
        <time>2015-10-17T16:14:13Z</time>
      </trkpt>
      <trkpt lat="45.88298" lon="3.02706">
        <ele>708</ele>
        <time>2015-10-17T16:16:13Z</time>
      </trkpt>
      <trkpt lat="45.8827" lon="3.02662">
        <ele>715</ele>
        <time>2015-10-17T16:18:13Z</time>
      </trkpt>
      <trkpt lat="45.88241" lon="3.02602">
        <ele>723</ele>
        <time>2015-10-17T16:20:13Z</time>
      </trkpt>
      <trkpt lat="45.88229" lon="3.02578">
        <ele>725</ele>
        <time>2015-10-17T16:22:13Z</time>
      </trkpt>
      <trkpt lat="45.88233" lon="3.02554">
        <ele>727</ele>
        <time>2015-10-17T16:24:13Z</time>
      </trkpt>
      <trkpt lat="45.88253" lon="3.02523">
        <ele>729</ele>
        <time>2015-10-17T16:26:13Z</time>
      </trkpt>
      <trkpt lat="45.88265" lon="3.02496">
        <ele>729</ele>
        <time>2015-10-17T16:28:13Z</time>
      </trkpt>
      <trkpt lat="45.88278" lon="3.02462">
        <ele>729</ele>
        <time>2015-10-17T16:30:13Z</time>
      </trkpt>
      <trkpt lat="45.88297" lon="3.02444">
        <ele>729</ele>
        <time>2015-10-17T16:32:13Z</time>
      </trkpt>
      <trkpt lat="45.88336" lon="3.0242">
        <ele>731</ele>
        <time>2015-10-17T16:34:13Z</time>
      </trkpt>
      <trkpt lat="45.88379" lon="3.02403">
        <ele>732</ele>
        <time>2015-10-17T16:36:13Z</time>
      </trkpt>
      <trkpt lat="45.88404" lon="3.0239">
        <ele>734</ele>
        <time>2015-10-17T16:38:13Z</time>
      </trkpt>
      <trkpt lat="45.88414" lon="3.02376">
        <ele>736</ele>
        <time>2015-10-17T16:40:13Z</time>
      </trkpt>
      <trkpt lat="45.88449" lon="3.02369">
        <ele>737</ele>
        <time>2015-10-17T16:42:13Z</time>
      </trkpt>
      <trkpt lat="45.88552" lon="3.02364">
        <ele>740</ele>
        <time>2015-10-17T16:44:13Z</time>
      </trkpt>
      <trkpt lat="45.8857" lon="3.02359">
        <ele>740</ele>
        <time>2015-10-17T16:46:13Z</time>
      </trkpt>
      <trkpt lat="45.88585" lon="3.02328">
        <ele>741</ele>
        <time>2015-10-17T16:48:13Z</time>
      </trkpt>
      <trkpt lat="45.88632" lon="3.02222">
        <ele>740</ele>
        <time>2015-10-17T16:50:13Z</time>
      </trkpt>
      <trkpt lat="45.88639" lon="3.02184">
        <ele>738</ele>
        <time>2015-10-17T16:52:13Z</time>
      </trkpt>
      <trkpt lat="45.8866" lon="3.02114">
        <ele>735</ele>
        <time>2015-10-17T16:54:13Z</time>
      </trkpt>
      <trkpt lat="45.88681" lon="3.02037">
        <ele>732</ele>
        <time>2015-10-17T16:56:13Z</time>
      </trkpt>
      <trkpt lat="45.8875" lon="3.01969">
        <ele>735</ele>
        <time>2015-10-17T16:58:13Z</time>
      </trkpt>
      <trkpt lat="45.88794" lon="3.01935">
        <ele>736</ele>
        <time>2015-10-17T17:00:13Z</time>
      </trkpt>
      <trkpt lat="45.88831" lon="3.01845">
        <ele>738</ele>
        <time>2015-10-17T17:02:13Z</time>
      </trkpt>
      <trkpt lat="45.88849" lon="3.01811">
        <ele>738</ele>
        <time>2015-10-17T17:04:13Z</time>
      </trkpt>
      <trkpt lat="45.88839" lon="3.01777">
        <ele>737</ele>
        <time>2015-10-17T17:06:13Z</time>
      </trkpt>
      <trkpt lat="45.888" lon="3.01718">
        <ele>733</ele>
        <time>2015-10-17T17:08:13Z</time>
      </trkpt>
      <trkpt lat="45.88777" lon="3.01684">
        <ele>732</ele>
        <time>2015-10-17T17:10:13Z</time>
      </trkpt>
      <trkpt lat="45.88768" lon="3.0166">
        <ele>731</ele>
        <time>2015-10-17T17:12:13Z</time>
      </trkpt>
      <trkpt lat="45.88768" lon="3.01637">
        <ele>728</ele>
        <time>2015-10-17T17:14:13Z</time>
      </trkpt>
      <trkpt lat="45.88795" lon="3.01638">
        <ele>729</ele>
        <time>2015-10-17T17:16:13Z</time>
      </trkpt>
      <trkpt lat="45.88828" lon="3.01632">
        <ele>729</ele>
        <time>2015-10-17T17:18:13Z</time>
      </trkpt>
      <trkpt lat="45.8888" lon="3.01616">
        <ele>730</ele>
        <time>2015-10-17T17:20:13Z</time>
      </trkpt>
      <trkpt lat="45.8897" lon="3.01595">
        <ele>738</ele>
        <time>2015-10-17T17:22:13Z</time>
      </trkpt>
      <trkpt lat="45.88989" lon="3.01555">
        <ele>740</ele>
        <time>2015-10-17T17:24:13Z</time>
      </trkpt>
      <trkpt lat="45.89003" lon="3.01509">
        <ele>741</ele>
        <time>2015-10-17T17:26:13Z</time>
      </trkpt>
      <trkpt lat="45.89009" lon="3.0146">
        <ele>740</ele>
        <time>2015-10-17T17:28:13Z</time>
      </trkpt>
      <trkpt lat="45.89016" lon="3.0143">
        <ele>740</ele>
        <time>2015-10-17T17:30:13Z</time>
      </trkpt>
      <trkpt lat="45.89033" lon="3.01405">
        <ele>741</ele>
        <time>2015-10-17T17:32:13Z</time>
      </trkpt>
      <trkpt lat="45.89063" lon="3.0139">
        <ele>743</ele>
        <time>2015-10-17T17:34:13Z</time>
      </trkpt>
      <trkpt lat="45.89082" lon="3.01361">
        <ele>743</ele>
        <time>2015-10-17T17:36:13Z</time>
      </trkpt>
      <trkpt lat="45.89086" lon="3.01333">
        <ele>741</ele>
        <time>2015-10-17T17:38:13Z</time>
      </trkpt>
      <trkpt lat="45.89082" lon="3.01272">
        <ele>739</ele>
        <time>2015-10-17T17:40:13Z</time>
      </trkpt>
      <trkpt lat="45.8908" lon="3.01234">
        <ele>738</ele>
        <time>2015-10-17T17:42:13Z</time>
      </trkpt>
      <trkpt lat="45.89092" lon="3.01183">
        <ele>740</ele>
        <time>2015-10-17T17:44:13Z</time>
      </trkpt>
      <trkpt lat="45.89089" lon="3.01132">
        <ele>740</ele>
        <time>2015-10-17T17:46:13Z</time>
      </trkpt>
      <trkpt lat="45.89073" lon="3.01048">
        <ele>740</ele>
        <time>2015-10-17T17:48:13Z</time>
      </trkpt>
      <trkpt lat="45.89048" lon="3.00992">
        <ele>737</ele>
        <time>2015-10-17T17:50:13Z</time>
      </trkpt>
      <trkpt lat="45.89021" lon="3.00928">
        <ele>733</ele>
        <time>2015-10-17T17:52:13Z</time>
      </trkpt>
      <trkpt lat="45.88999" lon="3.00873">
        <ele>732</ele>
        <time>2015-10-17T17:54:13Z</time>
      </trkpt>
      <trkpt lat="45.88974" lon="3.00803">
        <ele>733</ele>
        <time>2015-10-17T17:56:13Z</time>
      </trkpt>
      <trkpt lat="45.8896" lon="3.00769">
        <ele>735</ele>
        <time>2015-10-17T17:58:13Z</time>
      </trkpt>
      <trkpt lat="45.88958" lon="3.00743">
        <ele>735</ele>
        <time>2015-10-17T18:00:13Z</time>
      </trkpt>
      <trkpt lat="45.88969" lon="3.00719">
        <ele>736</ele>
        <time>2015-10-17T18:02:13Z</time>
      </trkpt>
      <trkpt lat="45.88979" lon="3.007">
        <ele>736</ele>
        <time>2015-10-17T18:04:13Z</time>
      </trkpt>
      <trkpt lat="45.8898" lon="3.00653">
        <ele>736</ele>
        <time>2015-10-17T18:06:13Z</time>
      </trkpt>
      <trkpt lat="45.88969" lon="3.00628">
        <ele>737</ele>
        <time>2015-10-17T18:08:13Z</time>
      </trkpt>
      <trkpt lat="45.8896" lon="3.00612">
        <ele>738</ele>
        <time>2015-10-17T18:10:13Z</time>
      </trkpt>
      <trkpt lat="45.88945" lon="3.00581">
        <ele>739</ele>
        <time>2015-10-17T18:12:13Z</time>
      </trkpt>
      <trkpt lat="45.88908" lon="3.00519">
        <ele>745</ele>
        <time>2015-10-17T18:14:13Z</time>
      </trkpt>
      <trkpt lat="45.88871" lon="3.00457">
        <ele>754</ele>
        <time>2015-10-17T18:16:13Z</time>
      </trkpt>
      <trkpt lat="45.88834" lon="3.00361">
        <ele>762</ele>
        <time>2015-10-17T18:18:13Z</time>
      </trkpt>
      <trkpt lat="45.8882" lon="3.00342">
        <ele>763</ele>
        <time>2015-10-17T18:20:13Z</time>
      </trkpt>
      <trkpt lat="45.88771" lon="3.00341">
        <ele>766</ele>
        <time>2015-10-17T18:22:13Z</time>
      </trkpt>
      <trkpt lat="45.88724" lon="3.00342">
        <ele>767</ele>
        <time>2015-10-17T18:24:13Z</time>
      </trkpt>
      <trkpt lat="45.88681" lon="3.00306">
        <ele>766</ele>
        <time>2015-10-17T18:26:13Z</time>
      </trkpt>
      <trkpt lat="45.88567" lon="3.00201">
        <ele>766</ele>
        <time>2015-10-17T18:28:13Z</time>
      </trkpt>
      <trkpt lat="45.88396" lon="3.00053">
        <ele>768</ele>
        <time>2015-10-17T18:30:13Z</time>
      </trkpt>
      <trkpt lat="45.88346" lon="3.00134">
        <ele>768</ele>
        <time>2015-10-17T18:32:13Z</time>
      </trkpt>
      <trkpt lat="45.883" lon="3.00241">
        <ele>765</ele>
        <time>2015-10-17T18:34:13Z</time>
      </trkpt>
      <trkpt lat="45.88239" lon="3.00387">
        <ele>761</ele>
        <time>2015-10-17T18:36:13Z</time>
      </trkpt>
      <trkpt lat="45.88204" lon="3.0037">
        <ele>761</ele>
        <time>2015-10-17T18:38:13Z</time>
      </trkpt>
      <trkpt lat="45.882" lon="3.00415">
        <ele>759</ele>
        <time>2015-10-17T18:40:13Z</time>
      </trkpt>
      <trkpt lat="45.88185" lon="3.00585">
        <ele>756</ele>
        <time>2015-10-17T18:42:13Z</time>
      </trkpt>
      <trkpt lat="45.8816" lon="3.00748">
        <ele>749</ele>
        <time>2015-10-17T18:44:13Z</time>
      </trkpt>
      <trkpt lat="45.88115" lon="3.00853">
        <ele>740</ele>
        <time>2015-10-17T18:46:13Z</time>
      </trkpt>
      <trkpt lat="45.88048" lon="3.00997">
        <ele>730</ele>
        <time>2015-10-17T18:48:13Z</time>
      </trkpt>
      <trkpt lat="45.88004" lon="3.01091">
        <ele>722</ele>
        <time>2015-10-17T18:50:13Z</time>
      </trkpt>
      <trkpt lat="45.87957" lon="3.01259">
        <ele>708</ele>
        <time>2015-10-17T18:52:13Z</time>
      </trkpt>
      <trkpt lat="45.87936" lon="3.01319">
        <ele>703</ele>
        <time>2015-10-17T18:54:13Z</time>
      </trkpt>
      <trkpt lat="45.87921" lon="3.01394">
        <ele>694</ele>
        <time>2015-10-17T18:56:13Z</time>
      </trkpt>
      <trkpt lat="45.87921" lon="3.01452">
        <ele>687</ele>
        <time>2015-10-17T18:58:13Z</time>
      </trkpt>
      <trkpt lat="45.87925" lon="3.01514">
        <ele>680</ele>
        <time>2015-10-17T19:00:13Z</time>
      </trkpt>
      <trkpt lat="45.87964" lon="3.01572">
        <ele>678</ele>
        <time>2015-10-17T19:02:13Z</time>
      </trkpt>
      <trkpt lat="45.87974" lon="3.01604">
        <ele>675</ele>
        <time>2015-10-17T19:04:13Z</time>
      </trkpt>
      <trkpt lat="45.87952" lon="3.01625">
        <ele>671</ele>
        <time>2015-10-17T19:06:13Z</time>
      </trkpt>
      <trkpt lat="45.87924" lon="3.01628">
        <ele>670</ele>
        <time>2015-10-17T19:08:13Z</time>
      </trkpt>
      <trkpt lat="45.87841" lon="3.01598">
        <ele>661</ele>
        <time>2015-10-17T19:10:13Z</time>
      </trkpt>
      <trkpt lat="45.87815" lon="3.01595">
        <ele>656</ele>
        <time>2015-10-17T19:12:13Z</time>
      </trkpt>
      <trkpt lat="45.87795" lon="3.01608">
        <ele>652</ele>
        <time>2015-10-17T19:14:13Z</time>
      </trkpt>
      <trkpt lat="45.87777" lon="3.01658">
        <ele>649</ele>
        <time>2015-10-17T19:16:13Z</time>
      </trkpt>
      <trkpt lat="45.8774" lon="3.01709">
        <ele>646</ele>
        <time>2015-10-17T19:18:13Z</time>
      </trkpt>
      <trkpt lat="45.87712" lon="3.0178">
        <ele>641</ele>
        <time>2015-10-17T19:20:13Z</time>
      </trkpt>
      <trkpt lat="45.87694" lon="3.01853">
        <ele>629</ele>
        <time>2015-10-17T19:22:13Z</time>
      </trkpt>
      <trkpt lat="45.87691" lon="3.01907">
        <ele>623</ele>
        <time>2015-10-17T19:24:13Z</time>
      </trkpt>
      <trkpt lat="45.87647" lon="3.01876">
        <ele>621</ele>
        <time>2015-10-17T19:26:13Z</time>
      </trkpt>
      <trkpt lat="45.87611" lon="3.01874">
        <ele>627</ele>
        <time>2015-10-17T19:28:13Z</time>
      </trkpt>
      <trkpt lat="45.87579" lon="3.01892">
        <ele>629</ele>
        <time>2015-10-17T19:30:13Z</time>
      </trkpt>
      <trkpt lat="45.87549" lon="3.01928">
        <ele>630</ele>
        <time>2015-10-17T19:32:13Z</time>
      </trkpt>
      <trkpt lat="45.87505" lon="3.01958">
        <ele>634</ele>
        <time>2015-10-17T19:34:13Z</time>
      </trkpt>
      <trkpt lat="45.87465" lon="3.01979">
        <ele>632</ele>
        <time>2015-10-17T19:36:13Z</time>
      </trkpt>
      <trkpt lat="45.87414" lon="3.01975">
        <ele>638</ele>
        <time>2015-10-17T19:38:13Z</time>
      </trkpt>
      <trkpt lat="45.87365" lon="3.01964">
        <ele>639</ele>
        <time>2015-10-17T19:40:13Z</time>
      </trkpt>
      <trkpt lat="45.87295" lon="3.0193">
        <ele>641</ele>
        <time>2015-10-17T19:42:13Z</time>
      </trkpt>
      <trkpt lat="45.87251" lon="3.01894">
        <ele>640</ele>
        <time>2015-10-17T19:44:13Z</time>
      </trkpt>
      <trkpt lat="45.87213" lon="3.01872">
        <ele>641</ele>
        <time>2015-10-17T19:46:13Z</time>
      </trkpt>
      <trkpt lat="45.87184" lon="3.01812">
        <ele>644</ele>
        <time>2015-10-17T19:48:13Z</time>
      </trkpt>
      <trkpt lat="45.87159" lon="3.01743">
        <ele>646</ele>
        <time>2015-10-17T19:50:13Z</time>
      </trkpt>
      <trkpt lat="45.87142" lon="3.01718">
        <ele>648</ele>
        <time>2015-10-17T19:52:13Z</time>
      </trkpt>
      <trkpt lat="45.87118" lon="3.01767">
        <ele>643</ele>
        <time>2015-10-17T19:54:13Z</time>
      </trkpt>
      <trkpt lat="45.87111" lon="3.01842">
        <ele>638</ele>
        <time>2015-10-17T19:56:13Z</time>
      </trkpt>
      <trkpt lat="45.87121" lon="3.01896">
        <ele>635</ele>
        <time>2015-10-17T19:58:13Z</time>
      </trkpt>
      <trkpt lat="45.87138" lon="3.01941">
        <ele>631</ele>
        <time>2015-10-17T20:00:13Z</time>
      </trkpt>
      <trkpt lat="45.87169" lon="3.01982">
        <ele>627</ele>
        <time>2015-10-17T20:02:13Z</time>
      </trkpt>
      <trkpt lat="45.87207" lon="3.02003">
        <ele>624</ele>
        <time>2015-10-17T20:04:13Z</time>
      </trkpt>
      <trkpt lat="45.87219" lon="3.02067">
        <ele>622</ele>
        <time>2015-10-17T20:06:13Z</time>
      </trkpt>
      <trkpt lat="45.87229" lon="3.02164">
        <ele>620</ele>
        <time>2015-10-17T20:08:13Z</time>
      </trkpt>
      <trkpt lat="45.87236" lon="3.02218">
        <ele>620</ele>
        <time>2015-10-17T20:10:13Z</time>
      </trkpt>
      <trkpt lat="45.87241" lon="3.02301">
        <ele>617</ele>
        <time>2015-10-17T20:12:13Z</time>
      </trkpt>
      <trkpt lat="45.87214" lon="3.02366">
        <ele>614</ele>
        <time>2015-10-17T20:14:13Z</time>
      </trkpt>
      <trkpt lat="45.87165" lon="3.02434">
        <ele>610</ele>
        <time>2015-10-17T20:16:13Z</time>
      </trkpt>
      <trkpt lat="45.87148" lon="3.02522">
        <ele>604</ele>
        <time>2015-10-17T20:18:13Z</time>
      </trkpt>
      <trkpt lat="45.8715" lon="3.0258">
        <ele>598</ele>
        <time>2015-10-17T20:20:13Z</time>
      </trkpt>
      <trkpt lat="45.87135" lon="3.02679">
        <ele>589</ele>
        <time>2015-10-17T20:22:13Z</time>
      </trkpt>
      <trkpt lat="45.87128" lon="3.02711">
        <ele>586</ele>
        <time>2015-10-17T20:24:13Z</time>
      </trkpt>
      <trkpt lat="45.87112" lon="3.02776">
        <ele>578</ele>
        <time>2015-10-17T20:26:13Z</time>
      </trkpt>
      <trkpt lat="45.87125" lon="3.02779">
        <ele>579</ele>
        <time>2015-10-17T20:28:13Z</time>
      </trkpt>
    </trkseg>
  </trk>
</gpx>